createdAt,value
2022-07-31T00:01:09.668Z,74.03
2022-07-31T00:03:38.628Z,73.94
2022-07-31T00:06:07.624Z,73.92
2022-07-31T00:08:37.777Z,73.63
2022-07-31T00:11:06.596Z,73.90
2022-07-31T00:13:57.971Z,73.89
2022-07-31T00:16:25.539Z,74.23
2022-07-31T00:18:54.522Z,73.91
2022-07-31T00:21:23.413Z,74.24
2022-07-31T00:23:52.721Z,74.07
2022-07-31T00:26:21.575Z,74.32
2022-07-31T00:28:50.341Z,73.68
2022-07-31T00:31:19.617Z,74.01
2022-07-31T00:33:49.777Z,73.87
2022-07-31T00:36:18.583Z,73.99
2022-07-31T00:38:48.073Z,74.13
2022-07-31T00:41:16.846Z,73.92
2022-07-31T00:43:45.650Z,73.72
2022-07-31T00:46:14.762Z,73.86
2022-07-31T00:48:43.835Z,73.76
2022-07-31T00:51:14.286Z,74.42
2022-07-31T00:53:44.098Z,73.87
2022-07-31T00:56:12.945Z,73.59
2022-07-31T00:58:41.658Z,74.38
2022-07-31T01:01:10.543Z,74.16
2022-07-31T01:03:39.504Z,74.08
2022-07-31T01:06:09.364Z,74.23
2022-07-31T01:08:39.525Z,74.15
2022-07-31T01:11:15.004Z,74.16
2022-07-31T01:13:52.499Z,74.06
2022-07-31T01:16:24.504Z,74.70
2022-07-31T01:18:57.050Z,74.45
2022-07-31T01:21:36.967Z,74.18
2022-07-31T01:24:30.964Z,74.31
2022-07-31T01:27:33.464Z,74.16
2022-07-31T01:30:28.965Z,74.13
2022-07-31T01:33:07.154Z,74.00
2022-07-31T01:35:43.736Z,74.58
2022-07-31T01:38:21.914Z,74.17
2022-07-31T01:40:59.143Z,74.06
2022-07-31T01:43:35.229Z,74.24
2022-07-31T01:46:08.501Z,74.53
2022-07-31T01:48:38.988Z,74.27
2022-07-31T01:51:10.095Z,74.26
2022-07-31T01:53:41.147Z,74.24
2022-07-31T01:56:12.041Z,74.15
2022-07-31T01:58:44.153Z,74.28
2022-07-31T02:01:53.434Z,74.08
2022-07-31T02:04:25.548Z,74.15
2022-07-31T02:06:56.666Z,74.96
2022-07-31T02:09:28.204Z,74.68
2022-07-31T02:11:59.348Z,74.54
2022-07-31T02:14:29.955Z,74.67
2022-07-31T02:17:01.583Z,74.67
2022-07-31T02:20:00.327Z,74.80
2022-07-31T02:22:30.479Z,75.22
2022-07-31T02:24:59.951Z,75.02
2022-07-31T02:27:58.036Z,74.96
2022-07-31T02:30:20.761Z,75.15
2022-07-31T02:32:54.276Z,74.91
2022-07-31T02:35:24.582Z,74.60
2022-07-31T02:37:57.406Z,74.80
2022-07-31T02:40:27.498Z,74.66
2022-07-31T02:42:57.393Z,75.13
2022-07-31T02:45:27.269Z,74.91
2022-07-31T02:47:58.142Z,74.82
2022-07-31T02:50:28.044Z,75.17
2022-07-31T02:52:56.997Z,74.79
2022-07-31T02:55:26.641Z,75.27
2022-07-31T02:57:55.633Z,74.94
2022-07-31T03:00:27.224Z,75.42
2022-07-31T03:02:59.224Z,75.63
2022-07-31T03:05:28.673Z,75.60
2022-07-31T03:07:57.508Z,75.72
2022-07-31T03:10:27.614Z,75.45
2022-07-31T03:13:04.980Z,75.45
2022-07-31T03:15:35.923Z,75.34
2022-07-31T03:18:11.848Z,75.07
2022-07-31T03:20:44.341Z,75.42
2022-07-31T03:23:15.618Z,75.16
2022-07-31T03:25:55.741Z,74.93
2022-07-31T03:28:24.898Z,74.95
2022-07-31T03:30:56.499Z,75.21
2022-07-31T03:33:29.978Z,75.15
2022-07-31T03:35:59.267Z,74.79
2022-07-31T03:38:34.878Z,75.20
2022-07-31T03:41:12.179Z,75.39
2022-07-31T03:43:47.927Z,75.30
2022-07-31T03:46:25.644Z,75.08
2022-07-31T03:48:56.321Z,75.07
2022-07-31T03:51:28.050Z,75.02
2022-07-31T03:53:57.134Z,75.18
2022-07-31T03:56:49.638Z,75.58
2022-07-31T03:59:21.685Z,75.65
2022-07-31T04:01:57.623Z,75.35
2022-07-31T04:04:58.640Z,75.33
2022-07-31T04:07:27.857Z,75.70
2022-07-31T04:09:56.671Z,75.64
2022-07-31T04:12:25.816Z,75.51
2022-07-31T04:14:54.769Z,75.93
2022-07-31T04:17:23.527Z,76.27
2022-07-31T04:19:52.309Z,76.35
2022-07-31T04:22:22.453Z,76.21
2022-07-31T04:24:51.405Z,76.47
2022-07-31T04:27:48.317Z,76.52
2022-07-31T04:30:18.367Z,76.53
2022-07-31T04:32:49.736Z,76.34
2022-07-31T04:35:23.345Z,76.75
2022-07-31T04:37:53.621Z,77.06
2022-07-31T04:40:26.442Z,77.01
2022-07-31T04:42:56.975Z,77.31
2022-07-31T04:45:25.851Z,77.49
2022-07-31T04:47:55.381Z,77.22
2022-07-31T04:50:24.298Z,77.83
2022-07-31T04:53:04.906Z,77.57
2022-07-31T04:55:40.633Z,78.18
2022-07-31T04:58:10.286Z,78.18
2022-07-31T05:00:39.823Z,78.63
2022-07-31T05:03:09.293Z,78.78
2022-07-31T05:05:39.310Z,79.07
2022-07-31T05:08:10.795Z,79.42
2022-07-31T05:11:01.888Z,79.10
2022-07-31T05:13:31.297Z,79.77
2022-07-31T05:16:00.188Z,79.63
2022-07-31T05:18:29.094Z,79.71
2022-07-31T05:21:18.946Z,80.08
2022-07-31T05:24:02.925Z,80.00
2022-07-31T05:26:46.598Z,80.28
2022-07-31T05:29:15.322Z,80.29
2022-07-31T05:31:59.697Z,80.21
2022-07-31T05:34:30.840Z,80.82
2022-07-31T05:37:02.245Z,81.08
2022-07-31T05:39:34.736Z,80.94
2022-07-31T05:42:22.292Z,80.95
2022-07-31T05:45:10.646Z,81.26
2022-07-31T05:47:41.147Z,80.44
2022-07-31T05:50:13.034Z,80.66
2022-07-31T05:52:43.038Z,79.91
2022-07-31T05:55:29.361Z,79.72
2022-07-31T05:58:22.494Z,79.26
2022-07-31T06:00:51.526Z,79.08
2022-07-31T06:03:27.903Z,78.57
2022-07-31T06:06:05.786Z,78.23
2022-07-31T06:08:34.943Z,77.66
2022-07-31T06:11:06.635Z,77.34
2022-07-31T06:13:36.039Z,77.13
2022-07-31T06:16:18.159Z,76.81
2022-07-31T06:18:47.089Z,76.63
2022-07-31T06:23:43.675Z,75.95
2022-07-31T06:26:37.622Z,75.49
2022-07-31T06:29:07.759Z,75.29
2022-07-31T06:31:37.008Z,74.41
2022-07-31T06:34:06.982Z,74.63
2022-07-31T06:36:41.789Z,74.56
2022-07-31T06:39:16.016Z,73.71
2022-07-31T06:42:21.614Z,72.35
2022-07-31T06:45:18.406Z,73.12
2022-07-31T06:48:19.378Z,72.90
2022-07-31T06:51:14.565Z,72.08
2022-07-31T06:53:52.514Z,72.35
2022-07-31T06:56:22.468Z,72.25
2022-07-31T06:59:01.276Z,72.28
2022-07-31T07:01:43.561Z,70.98
2022-07-31T07:04:13.737Z,70.88
2022-07-31T07:06:43.967Z,70.76
2022-07-31T07:09:14.955Z,70.24
2022-07-31T07:11:50.688Z,70.28
2022-07-31T07:14:27.725Z,70.01
2022-07-31T07:16:56.589Z,70.02
2022-07-31T07:19:30.138Z,69.46
2022-07-31T07:21:59.380Z,69.15
2022-07-31T07:24:31.430Z,68.32
2022-07-31T07:27:12.436Z,67.78
2022-07-31T07:29:42.884Z,68.09
2022-07-31T07:32:14.854Z,68.24
2022-07-31T07:34:44.837Z,67.57
2022-07-31T07:37:28.267Z,66.12
2022-07-31T07:39:57.957Z,66.15
2022-07-31T07:42:34.154Z,65.81
2022-07-31T07:45:08.502Z,64.62
2022-07-31T07:48:02.846Z,64.60
2022-07-31T07:50:54.407Z,63.98
2022-07-31T07:53:52.879Z,64.28
2022-07-31T07:56:40.369Z,64.18
2022-07-31T07:59:35.604Z,64.04
2022-07-31T08:02:24.839Z,62.57
2022-07-31T08:04:55.008Z,62.56
2022-07-31T08:07:41.884Z,62.85
2022-07-31T08:10:39.434Z,62.49
2022-07-31T08:13:16.748Z,62.36
2022-07-31T08:16:04.136Z,61.21
2022-07-31T08:18:39.474Z,61.23
2022-07-31T08:21:08.352Z,60.85
2022-07-31T08:23:37.794Z,60.59
2022-07-31T08:26:09.541Z,59.93
2022-07-31T08:28:38.721Z,59.36
2022-07-31T08:31:07.679Z,58.50
2022-07-31T08:33:50.258Z,58.25
2022-07-31T08:36:19.823Z,57.20
2022-07-31T08:38:52.050Z,57.48
2022-07-31T08:41:40.981Z,57.54
2022-07-31T08:44:12.419Z,56.02
2022-07-31T08:46:46.212Z,56.09
2022-07-31T08:49:20.182Z,55.40
2022-07-31T08:51:51.377Z,55.71
2022-07-31T08:54:24.120Z,54.53
2022-07-31T08:56:53.548Z,54.75
2022-07-31T08:59:23.853Z,53.63
2022-07-31T09:01:57.044Z,53.88
2022-07-31T09:04:30.655Z,53.21
2022-07-31T09:07:00.474Z,53.11
2022-07-31T09:09:50.824Z,53.29
2022-07-31T09:12:32.301Z,53.05
2022-07-31T09:15:22.976Z,51.85
2022-07-31T09:17:54.292Z,52.24
2022-07-31T09:20:29.326Z,51.84
2022-07-31T09:23:12.731Z,51.47
2022-07-31T09:25:55.157Z,51.62
2022-07-31T09:28:37.266Z,50.45
2022-07-31T09:31:10.650Z,49.67
2022-07-31T09:34:01.255Z,49.08
2022-07-31T09:36:34.468Z,49.30
2022-07-31T09:39:27.670Z,48.30
2022-07-31T09:42:17.300Z,49.09
2022-07-31T09:45:20.442Z,47.18
2022-07-31T09:48:03.402Z,47.78
2022-07-31T09:50:32.584Z,45.39
2022-07-31T09:53:03.414Z,45.62
2022-07-31T09:55:34.917Z,45.80
2022-07-31T09:58:04.085Z,46.63
2022-07-31T10:00:41.349Z,47.75
2022-07-31T10:03:15.372Z,46.72
2022-07-31T10:05:46.866Z,44.69
2022-07-31T10:08:21.301Z,46.47
2022-07-31T10:11:16.830Z,46.99
2022-07-31T10:14:03.497Z,46.61
2022-07-31T10:16:37.483Z,44.12
2022-07-31T10:19:33.312Z,44.61
2022-07-31T10:22:24.745Z,45.21
2022-07-31T10:25:01.354Z,45.58
2022-07-31T10:27:31.636Z,45.43
2022-07-31T10:30:11.044Z,44.93
2022-07-31T10:32:45.542Z,44.03
2022-07-31T10:35:55.456Z,43.19
2022-07-31T10:38:52.461Z,42.44
2022-07-31T10:41:58.517Z,42.60
2022-07-31T10:44:38.899Z,41.66
2022-07-31T10:47:33.982Z,39.98
2022-07-31T10:50:23.946Z,40.54
2022-07-31T10:53:20.137Z,40.89
2022-07-31T10:56:10.989Z,40.40
2022-07-31T10:59:02.211Z,41.90
2022-07-31T11:01:53.631Z,42.33
2022-07-31T11:04:46.582Z,42.55
2022-07-31T11:07:33.223Z,40.41
2022-07-31T11:10:19.535Z,40.77
2022-07-31T11:13:11.228Z,40.35
2022-07-31T11:16:18.466Z,40.48
2022-07-31T11:19:06.199Z,39.79
2022-07-31T11:21:42.113Z,38.33
2022-07-31T11:24:18.500Z,38.02
2022-07-31T11:26:53.155Z,39.31
2022-07-31T11:29:59.557Z,40.14
2022-07-31T11:32:26.434Z,37.74
2022-07-31T11:34:58.577Z,36.73
2022-07-31T11:37:45.942Z,37.00
2022-07-31T11:40:22.452Z,38.15
2022-07-31T11:43:25.295Z,38.32
2022-07-31T11:45:48.703Z,37.54
2022-07-31T11:48:22.218Z,36.99
2022-07-31T11:50:52.497Z,36.13
2022-07-31T11:53:22.431Z,35.49
2022-07-31T11:55:54.512Z,35.14
2022-07-31T11:58:26.202Z,34.53
2022-07-31T12:00:59.164Z,33.47
2022-07-31T12:03:33.716Z,33.53
2022-07-31T12:06:02.780Z,33.74
2022-07-31T12:08:32.364Z,32.66
2022-07-31T12:11:02.658Z,32.53
2022-07-31T12:13:32.806Z,32.64
2022-07-31T12:16:04.997Z,33.66
2022-07-31T12:18:49.399Z,33.39
2022-07-31T12:21:20.684Z,32.48
2022-07-31T12:23:53.431Z,31.37
2022-07-31T12:26:28.436Z,31.41
2022-07-31T12:29:02.536Z,32.63
2022-07-31T12:31:45.066Z,33.63
2022-07-31T12:34:26.195Z,32.79
2022-07-31T12:37:07.842Z,33.58
2022-07-31T12:39:54.142Z,32.96
2022-07-31T12:42:34.218Z,35.10
2022-07-31T12:45:19.996Z,32.80
2022-07-31T12:47:52.024Z,31.55
2022-07-31T12:50:23.462Z,31.44
2022-07-31T12:52:52.538Z,31.66
2022-07-31T12:55:22.587Z,31.75
2022-07-31T12:57:53.398Z,30.05
2022-07-31T13:00:23.915Z,30.58
2022-07-31T13:02:53.873Z,30.51
2022-07-31T13:05:25.853Z,31.62
2022-07-31T13:07:55.064Z,30.96
2022-07-31T13:10:31.827Z,31.61
2022-07-31T13:13:00.898Z,31.19
2022-07-31T13:15:30.755Z,30.22
2022-07-31T13:18:11.436Z,29.68
2022-07-31T13:20:43.034Z,28.28
2022-07-31T13:23:12.152Z,27.33
2022-07-31T13:25:41.362Z,27.41
2022-07-31T13:28:10.141Z,26.48
2022-07-31T13:30:39.627Z,26.37
2022-07-31T13:33:08.686Z,25.88
2022-07-31T13:35:37.624Z,25.92
2022-07-31T13:38:08.080Z,26.55
2022-07-31T13:40:54.846Z,27.68
2022-07-31T13:43:24.738Z,29.16
2022-07-31T13:45:53.525Z,29.39
2022-07-31T13:48:22.349Z,29.25
2022-07-31T13:50:51.049Z,27.14
2022-07-31T13:53:21.350Z,27.08
2022-07-31T13:55:50.308Z,26.32
2022-07-31T13:58:19.172Z,25.49
2022-07-31T14:00:48.968Z,24.15
2022-07-31T14:03:18.420Z,23.07
2022-07-31T14:05:55.994Z,22.17
2022-07-31T14:08:30.533Z,22.82
2022-07-31T14:11:17.536Z,22.27
2022-07-31T14:13:48.001Z,22.91
2022-07-31T14:16:18.251Z,22.69
2022-07-31T14:18:47.780Z,22.32
2022-07-31T14:21:19.158Z,22.24
2022-07-31T14:23:50.018Z,20.46
2022-07-31T14:26:19.816Z,20.92
2022-07-31T14:28:58.008Z,19.94
2022-07-31T14:31:29.534Z,18.70
2022-07-31T14:33:58.855Z,18.31
2022-07-31T14:36:29.137Z,18.30
2022-07-31T14:39:00.456Z,18.42
2022-07-31T14:41:30.225Z,17.90
2022-07-31T14:44:00.740Z,16.88
2022-07-31T14:46:30.562Z,17.06
2022-07-31T14:49:00.261Z,18.14
2022-07-31T14:51:29.910Z,17.61
2022-07-31T14:54:02.021Z,17.15
2022-07-31T14:56:58.563Z,17.37
2022-07-31T14:59:19.654Z,16.79
2022-07-31T15:01:48.417Z,16.73
2022-07-31T15:04:20.139Z,17.37
2022-07-31T15:07:07.228Z,18.35
2022-07-31T15:09:39.646Z,19.91
2022-07-31T15:12:09.607Z,20.91
2022-07-31T15:14:38.414Z,22.01
2022-07-31T15:17:07.675Z,22.87
2022-07-31T15:19:36.507Z,23.65
2022-07-31T15:22:15.665Z,23.68
2022-07-31T15:24:48.762Z,24.50
2022-07-31T15:27:19.994Z,25.65
2022-07-31T15:30:00.519Z,26.39
2022-07-31T15:32:37.017Z,26.47
2022-07-31T15:35:08.792Z,25.70
2022-07-31T15:37:39.789Z,26.33
2022-07-31T15:40:17.343Z,26.42
2022-07-31T15:42:49.399Z,26.07
2022-07-31T15:45:21.656Z,26.14
2022-07-31T15:47:50.639Z,26.71
2022-07-31T15:50:21.423Z,27.24
2022-07-31T15:52:51.954Z,27.83
2022-07-31T15:55:22.467Z,27.40
2022-07-31T15:57:52.059Z,27.20
2022-07-31T16:00:23.077Z,26.23
2022-07-31T16:02:54.034Z,25.43
2022-07-31T16:05:36.701Z,26.37
2022-07-31T16:08:29.094Z,26.29
2022-07-31T16:11:02.061Z,27.70
2022-07-31T16:13:36.292Z,27.21
2022-07-31T16:16:06.469Z,28.62
2022-07-31T16:18:35.470Z,27.35
2022-07-31T16:21:04.630Z,27.92
2022-07-31T16:23:33.555Z,28.13
2022-07-31T16:26:03.776Z,30.01
2022-07-31T16:28:32.555Z,29.52
2022-07-31T16:31:01.490Z,29.98
2022-07-31T16:33:30.246Z,29.62
2022-07-31T16:35:59.078Z,30.09
2022-07-31T16:38:27.987Z,29.80
2022-07-31T16:40:56.735Z,30.90
2022-07-31T16:43:49.126Z,30.95
2022-07-31T16:46:16.034Z,31.39
2022-07-31T16:48:44.855Z,30.57
2022-07-31T16:51:14.860Z,31.09
2022-07-31T16:54:13.417Z,31.79
2022-07-31T16:56:32.416Z,32.05
2022-07-31T16:59:04.774Z,33.10
2022-07-31T17:01:57.628Z,33.06
2022-07-31T17:04:22.433Z,32.90
2022-07-31T17:06:51.200Z,33.39
2022-07-31T17:09:20.325Z,32.75
2022-07-31T17:11:52.113Z,34.02
2022-07-31T17:14:26.542Z,33.47
2022-07-31T17:16:56.562Z,34.17
2022-07-31T17:19:41.234Z,34.66
2022-07-31T17:22:18.613Z,34.75
2022-07-31T17:24:51.017Z,34.39
2022-07-31T17:27:22.009Z,34.86
2022-07-31T17:29:52.521Z,35.27
2022-07-31T17:32:23.638Z,34.84
2022-07-31T17:34:52.848Z,35.14
2022-07-31T17:37:21.860Z,35.07
2022-07-31T17:39:57.081Z,35.52
2022-07-31T17:42:27.482Z,35.64
2022-07-31T17:44:59.037Z,36.46
2022-07-31T17:47:27.808Z,36.40
2022-07-31T17:49:57.034Z,36.37
2022-07-31T17:52:31.955Z,37.43
2022-07-31T17:55:01.478Z,38.24
2022-07-31T17:57:30.595Z,38.53
2022-07-31T18:00:09.991Z,38.04
2022-07-31T18:02:38.903Z,38.70
2022-07-31T18:05:09.143Z,38.45
2022-07-31T18:07:39.060Z,38.83
2022-07-31T18:10:11.967Z,38.86
2022-07-31T18:12:57.435Z,39.16
2022-07-31T18:15:34.791Z,39.29
2022-07-31T18:18:04.998Z,39.95
2022-07-31T18:20:34.461Z,39.72
2022-07-31T18:23:03.258Z,39.63
2022-07-31T18:25:32.090Z,39.82
2022-07-31T18:28:03.093Z,39.95
2022-07-31T18:30:38.865Z,40.07
2022-07-31T18:33:08.297Z,40.26
2022-07-31T18:35:36.982Z,40.61
2022-07-31T18:38:05.812Z,40.34
2022-07-31T18:40:34.640Z,40.72
2022-07-31T18:43:10.133Z,40.54
2022-07-31T18:45:47.596Z,40.80
2022-07-31T18:48:16.592Z,40.89
2022-07-31T18:50:59.294Z,41.14
2022-07-31T18:53:32.820Z,41.55
2022-07-31T18:56:01.558Z,41.46
2022-07-31T18:58:30.783Z,41.80
2022-07-31T19:01:01.112Z,41.92
2022-07-31T19:03:31.122Z,42.48
2022-07-31T19:06:00.031Z,42.48
2022-07-31T19:08:28.830Z,42.80
2022-07-31T19:10:57.767Z,42.54
2022-07-31T19:13:26.610Z,42.53
2022-07-31T19:15:55.414Z,42.50
2022-07-31T19:18:28.799Z,42.74
2022-07-31T19:21:23.580Z,43.35
2022-07-31T19:23:51.766Z,44.54
2022-07-31T19:26:20.673Z,44.33
2022-07-31T19:28:49.638Z,44.64
2022-07-31T19:31:18.585Z,45.17
2022-07-31T19:33:48.923Z,44.84
2022-07-31T19:36:17.770Z,45.24
2022-07-31T19:38:46.567Z,46.67
2022-07-31T19:41:16.009Z,46.88
2022-07-31T19:43:45.805Z,48.30
2022-07-31T19:46:14.842Z,49.14
2022-07-31T19:48:46.088Z,50.69
2022-07-31T19:51:17.066Z,51.40
2022-07-31T19:53:47.076Z,50.88
2022-07-31T19:56:20.763Z,52.57
2022-07-31T19:58:51.672Z,52.40
2022-07-31T20:01:21.918Z,53.30
2022-07-31T20:03:53.322Z,52.34
2022-07-31T20:06:23.648Z,55.01
2022-07-31T20:08:57.022Z,55.22
2022-07-31T20:11:26.400Z,56.08
2022-07-31T20:13:55.214Z,55.93
2022-07-31T20:16:24.393Z,57.18
2022-07-31T20:18:53.184Z,57.29
2022-07-31T20:21:23.382Z,57.81
2022-07-31T20:23:56.685Z,56.61
2022-07-31T20:26:26.572Z,58.03
2022-07-31T20:28:55.401Z,58.28
2022-07-31T20:31:24.223Z,57.96
2022-07-31T20:33:56.851Z,58.11
2022-07-31T20:36:28.969Z,58.07
2022-07-31T20:38:58.858Z,57.92
2022-07-31T20:41:28.446Z,57.59
2022-07-31T20:43:57.288Z,57.42
2022-07-31T20:46:26.134Z,57.82
2022-07-31T20:48:56.426Z,58.75
2022-07-31T20:51:25.384Z,58.33
2022-07-31T20:53:56.025Z,58.03
2022-07-31T20:56:25.658Z,58.21
2022-07-31T20:58:56.347Z,58.49
2022-07-31T21:01:26.363Z,58.52
2022-07-31T21:03:56.165Z,58.45
2022-07-31T21:06:25.125Z,58.03
2022-07-31T21:09:06.342Z,59.08
2022-07-31T21:11:35.989Z,58.52
2022-07-31T21:14:04.837Z,58.54
2022-07-31T21:16:40.251Z,57.67
2022-07-31T21:19:09.789Z,57.86
2022-07-31T21:21:39.509Z,58.66
2022-07-31T21:24:10.294Z,58.36
2022-07-31T21:26:42.645Z,59.26
2022-07-31T21:29:12.113Z,58.82
2022-07-31T21:31:48.871Z,58.54
2022-07-31T21:38:40.382Z,59.28
2022-07-31T21:41:11.561Z,60.59
2022-07-31T21:43:58.124Z,60.67
2022-07-31T21:46:30.737Z,60.11
2022-07-31T21:49:00.222Z,60.42
2022-07-31T21:51:30.289Z,62.42
2022-07-31T21:53:59.261Z,62.18
2022-07-31T21:56:29.926Z,63.37
2022-07-31T21:58:58.798Z,63.45
2022-07-31T22:01:27.749Z,63.97
2022-07-31T22:03:56.548Z,63.82
2022-07-31T22:06:57.122Z,63.80
2022-07-31T22:09:26.598Z,63.79
2022-07-31T22:12:01.316Z,63.86
2022-07-31T22:14:30.469Z,63.60
2022-07-31T22:16:59.913Z,64.19
2022-07-31T22:19:29.931Z,63.88
2022-07-31T22:21:59.419Z,63.77
2022-07-31T22:24:29.090Z,64.57
2022-07-31T22:27:18.292Z,64.85
2022-07-31T22:29:48.415Z,64.96
2022-07-31T22:32:17.553Z,64.62
2022-07-31T22:34:46.668Z,65.00
2022-07-31T22:37:16.945Z,66.00
2022-07-31T22:39:47.266Z,64.97
2022-07-31T22:42:17.610Z,64.46
2022-07-31T22:44:46.693Z,64.75
2022-07-31T22:47:17.457Z,64.89
2022-07-31T22:49:46.469Z,64.66
2022-07-31T22:52:15.420Z,64.56
2022-07-31T22:54:46.646Z,64.74
2022-07-31T22:57:17.890Z,64.63
2022-07-31T22:59:48.736Z,64.51
2022-07-31T23:02:18.585Z,64.15
2022-07-31T23:04:47.482Z,64.07
2022-07-31T23:07:16.453Z,64.33
2022-07-31T23:09:45.269Z,64.11
2022-07-31T23:12:14.075Z,63.72
2022-07-31T23:14:44.257Z,63.88
2022-07-31T23:17:23.186Z,63.93
2022-07-31T23:19:54.392Z,64.01
2022-07-31T23:22:33.358Z,64.50
2022-07-31T23:25:03.358Z,64.18
2022-07-31T23:27:32.134Z,63.82
2022-07-31T23:30:02.700Z,63.84
2022-07-31T23:32:33.600Z,63.92
2022-07-31T23:35:02.451Z,63.83
2022-07-31T23:37:31.261Z,63.50
2022-07-31T23:40:00.064Z,63.00
2022-07-31T23:42:41.045Z,63.25
2022-07-31T23:45:13.438Z,63.93
2022-07-31T23:47:45.454Z,63.83
2022-07-31T23:50:16.123Z,63.83
2022-07-31T23:52:45.521Z,64.80
2022-07-31T23:55:14.816Z,64.67
2022-07-31T23:57:43.962Z,64.53
